Terminal Aerodrome Forecast
Issued by NWS

Home | Current Version | Previous Version | Text Only | Print | Product List | Glossary On
Versions: 1 2 3 4 5 6 7 8 9 10 11 12 13 14 15 16 17 18 19 20 21 22 23
000
FTUS41 KBGM 222300
TAFRME
TAF
KRME 222325Z 2300/2324 11006KT P6SM OVC015
      TEMPO 2306/2310 3SM BR BKN009 OVC015
     FM231000 11006KT 3SM BR BKN012 OVC020
     FM231400 12005KT P6SM BKN025
     FM231700 13005KT P6SM FEW025 BKN045=

USA.gov is the U.S. government's official web portal to all federal, state and local government web resources and services.